createdAt,value
2017-07-11T00:02:03.894Z,100625
2017-07-11T00:04:32.872Z,100620
2017-07-11T00:07:01.049Z,100612
2017-07-11T00:09:29.229Z,100619
2017-07-11T00:11:57.443Z,100617
2017-07-11T00:14:25.632Z,100631
2017-07-11T00:16:53.811Z,100615
2017-07-11T00:19:22.019Z,100619
2017-07-11T00:21:50.192Z,100623
2017-07-11T00:24:18.371Z,100615
2017-07-11T00:26:46.585Z,100608
2017-07-11T00:29:14.761Z,100612
2017-07-11T00:31:42.941Z,100607
2017-07-11T00:34:11.146Z,100620
2017-07-11T00:36:39.315Z,100605
2017-07-11T00:39:07.479Z,100612
2017-07-11T00:41:35.666Z,100625
2017-07-11T00:44:03.862Z,100625
2017-07-11T00:46:32.037Z,100627
2017-07-11T00:49:00.214Z,100624
2017-07-11T00:51:28.373Z,100625
2017-07-11T00:53:56.548Z,100623
2017-07-11T00:56:24.753Z,100629
2017-07-11T00:58:52.910Z,100641
2017-07-11T01:01:21.082Z,100644
2017-07-11T01:03:49.271Z,100646
2017-07-11T01:06:17.422Z,100657
2017-07-11T01:08:45.583Z,100662
2017-07-11T01:11:13.760Z,100659
2017-07-11T01:13:41.944Z,100636
2017-07-11T01:16:10.101Z,100642
2017-07-11T01:18:38.302Z,100644
2017-07-11T01:21:06.484Z,100653
2017-07-11T01:23:34.661Z,100646
2017-07-11T01:26:02.862Z,100650
2017-07-11T01:28:31.019Z,100650
2017-07-11T01:30:59.963Z,100653
2017-07-11T01:33:28.473Z,100654
2017-07-11T01:35:56.654Z,100668
2017-07-11T01:38:24.804Z,100659
2017-07-11T01:40:52.978Z,100645
2017-07-11T01:43:21.754Z,100635
2017-07-11T01:45:49.945Z,100649
2017-07-11T01:48:18.150Z,100641
2017-07-11T01:50:46.333Z,100648
2017-07-11T01:53:14.491Z,100635
2017-07-11T01:55:42.678Z,100645
2017-07-11T01:58:10.853Z,100642
2017-07-11T02:00:39.027Z,100647
2017-07-11T02:03:07.223Z,100640
2017-07-11T02:05:36.164Z,100637
2017-07-11T02:08:04.344Z,100635
2017-07-11T02:10:32.542Z,100639
2017-07-11T02:13:00.709Z,100629
2017-07-11T02:15:28.880Z,100631
2017-07-11T02:17:57.072Z,100635
2017-07-11T02:20:25.232Z,100629
2017-07-11T02:22:53.390Z,100633
2017-07-11T02:25:21.585Z,100630
2017-07-11T02:27:49.758Z,100630
2017-07-11T02:30:17.927Z,100638
2017-07-11T02:32:46.110Z,100633
2017-07-11T02:35:14.286Z,100632
2017-07-11T02:37:42.464Z,100635
2017-07-11T02:40:10.654Z,100638
2017-07-11T02:42:39.601Z,100644
2017-07-11T02:45:07.746Z,100634
2017-07-11T02:47:35.931Z,100638
2017-07-11T02:50:04.108Z,100638
2017-07-11T02:52:32.280Z,100635
2017-07-11T02:55:00.483Z,100629
2017-07-11T02:57:28.642Z,100635
2017-07-11T02:59:56.821Z,100628
2017-07-11T03:02:25.008Z,100637
2017-07-11T03:04:53.187Z,100634
2017-07-11T03:07:21.339Z,100633
2017-07-11T03:09:49.573Z,100631
2017-07-11T03:12:18.506Z,100629
2017-07-11T03:14:46.686Z,100621
2017-07-11T03:17:14.884Z,100637
2017-07-11T03:19:43.039Z,100631
2017-07-11T03:22:11.217Z,100620
2017-07-11T03:24:39.422Z,100623
2017-07-11T03:27:07.601Z,100621
2017-07-11T03:29:36.532Z,100620
2017-07-11T03:32:04.732Z,100625
2017-07-11T03:34:32.903Z,100626
2017-07-11T03:37:01.077Z,100616
2017-07-11T03:39:29.262Z,100623
2017-07-11T03:41:57.410Z,100612
2017-07-11T03:44:25.582Z,100608
2017-07-11T03:46:53.793Z,100607
2017-07-11T03:49:21.965Z,100611
2017-07-11T03:51:50.144Z,100604
2017-07-11T03:54:18.327Z,100602
2017-07-11T03:56:46.501Z,100601
2017-07-11T03:59:14.681Z,100594
2017-07-11T04:01:42.885Z,100604
2017-07-11T04:04:11.083Z,100601
2017-07-11T04:06:39.266Z,100603
2017-07-11T04:09:07.453Z,100599
2017-07-11T04:11:35.634Z,100600
2017-07-11T04:14:03.804Z,100591
2017-07-11T04:16:31.998Z,100586
2017-07-11T04:19:00.157Z,100589
2017-07-11T04:21:28.326Z,100594
2017-07-11T04:23:56.537Z,100612
2017-07-11T04:26:24.708Z,100599
2017-07-11T04:28:52.869Z,100602
2017-07-11T04:31:21.069Z,100609
2017-07-11T04:33:49.234Z,100602
2017-07-11T04:36:17.407Z,100614
2017-07-11T04:38:45.594Z,100624
2017-07-11T04:41:13.765Z,100617
2017-07-11T04:43:41.918Z,100623
2017-07-11T04:46:10.119Z,100628
2017-07-11T04:48:38.283Z,100619
2017-07-11T04:51:06.454Z,100620
2017-07-11T04:53:34.669Z,100616
2017-07-11T04:56:03.606Z,100627
2017-07-11T04:58:31.776Z,100629
2017-07-11T05:00:59.976Z,100628
2017-07-11T05:03:28.130Z,100636
2017-07-11T05:05:56.293Z,100629
2017-07-11T05:08:24.497Z,100628
2017-07-11T05:10:52.651Z,100639
2017-07-11T05:13:20.825Z,100636
2017-07-11T05:15:49.039Z,100638
2017-07-11T05:18:17.212Z,100626
2017-07-11T05:20:45.385Z,100629
2017-07-11T05:23:13.561Z,100631
2017-07-11T05:25:41.736Z,100627
2017-07-11T05:28:09.913Z,100637
2017-07-11T05:30:38.107Z,100633
2017-07-11T05:33:06.268Z,100637
2017-07-11T05:35:35.200Z,100637
2017-07-11T05:38:03.407Z,100639
2017-07-11T05:40:31.590Z,100638
2017-07-11T05:42:59.747Z,100638
2017-07-11T05:45:27.950Z,100639
2017-07-11T05:47:56.094Z,100634
2017-07-11T05:50:24.306Z,100638
2017-07-11T05:52:52.469Z,100638
2017-07-11T05:55:20.645Z,100634
2017-07-11T05:57:49.663Z,100646
2017-07-11T06:00:18.646Z,100646
2017-07-11T06:02:46.814Z,100643
2017-07-11T06:05:14.989Z,100641
2017-07-11T06:07:43.499Z,100645
2017-07-11T06:10:12.428Z,100648
2017-07-11T06:12:40.605Z,100651
2017-07-11T06:15:08.791Z,100653
2017-07-11T06:17:36.967Z,100649
2017-07-11T06:20:05.892Z,100656
2017-07-11T06:22:34.084Z,100649
2017-07-11T06:25:02.253Z,100642
2017-07-11T06:27:30.426Z,100647
2017-07-11T06:29:58.606Z,100649
2017-07-11T06:32:26.777Z,100655
2017-07-11T06:34:54.934Z,100655
2017-07-11T06:37:23.165Z,100662
2017-07-11T06:39:51.342Z,100659
2017-07-11T06:42:19.494Z,100655
2017-07-11T06:44:47.703Z,100655
2017-07-11T06:47:16.624Z,100655
2017-07-11T06:49:44.801Z,100657
2017-07-11T06:52:12.988Z,100655
2017-07-11T06:54:41.148Z,100666
2017-07-11T06:57:09.321Z,100658
2017-07-11T06:59:37.519Z,100664
2017-07-11T07:02:05.698Z,100649
2017-07-11T07:04:33.872Z,100659
2017-07-11T07:07:02.069Z,100660
2017-07-11T07:09:30.247Z,100659
2017-07-11T07:11:58.425Z,100655
2017-07-11T07:14:26.606Z,100652
2017-07-11T07:16:54.782Z,100663
2017-07-11T07:19:22.980Z,100655
2017-07-11T07:21:51.946Z,100658
2017-07-11T07:24:20.107Z,100653
2017-07-11T07:26:48.321Z,100651
2017-07-11T07:29:17.275Z,100659
2017-07-11T07:31:45.435Z,100655
2017-07-11T07:34:13.609Z,100658
2017-07-11T07:36:41.809Z,100658
2017-07-11T07:39:09.963Z,100661
2017-07-11T07:41:38.138Z,100658
2017-07-11T07:44:06.332Z,100662
2017-07-11T07:46:34.501Z,100669
2017-07-11T07:49:02.659Z,100672
2017-07-11T07:51:30.837Z,100666
2017-07-11T07:53:58.986Z,100660
2017-07-11T07:56:27.149Z,100662
2017-07-11T07:58:55.336Z,100665
2017-07-11T08:01:23.507Z,100665
2017-07-11T08:03:51.655Z,100668
2017-07-11T08:06:20.602Z,100672
2017-07-11T08:08:48.777Z,100665
2017-07-11T08:11:16.934Z,100662
2017-07-11T08:13:45.134Z,100665
2017-07-11T08:16:13.311Z,100658
2017-07-11T08:18:41.468Z,100657
2017-07-11T08:21:09.652Z,100663
2017-07-11T08:23:37.829Z,100659
2017-07-11T08:26:05.987Z,100654
2017-07-11T08:28:34.180Z,100645
2017-07-11T08:31:02.378Z,100640
2017-07-11T08:33:30.532Z,100630
2017-07-11T08:35:58.752Z,100636
2017-07-11T08:38:26.922Z,100636
2017-07-11T08:40:55.105Z,100636
2017-07-11T08:43:23.301Z,100646
2017-07-11T08:45:51.477Z,100640
2017-07-11T08:48:19.649Z,100649
2017-07-11T08:50:48.196Z,100659
2017-07-11T08:53:16.381Z,100662
2017-07-11T08:55:44.563Z,100664
2017-07-11T08:58:12.769Z,100658
2017-07-11T09:00:40.950Z,100664
2017-07-11T09:03:09.106Z,100673
2017-07-11T09:05:37.295Z,100673
2017-07-11T09:08:05.469Z,100676
2017-07-11T09:10:33.637Z,100683
2017-07-11T09:13:01.842Z,100679
2017-07-11T09:15:30.002Z,100681
2017-07-11T09:17:58.183Z,100675
2017-07-11T09:20:26.368Z,100676
2017-07-11T09:22:54.544Z,100675
2017-07-11T09:25:22.703Z,100671
2017-07-11T09:27:50.912Z,100653
2017-07-11T09:30:19.839Z,100640
2017-07-11T09:32:48.022Z,100644
2017-07-11T09:35:16.208Z,100648
2017-07-11T09:37:44.361Z,100645
2017-07-11T09:40:12.536Z,100657
2017-07-11T09:42:40.723Z,100659
2017-07-11T09:45:08.878Z,100672
2017-07-11T09:47:37.056Z,100670
2017-07-11T09:50:05.273Z,100673
2017-07-11T09:52:33.454Z,100679
2017-07-11T09:55:01.628Z,100679
2017-07-11T09:57:29.818Z,100683
2017-07-11T09:59:58.747Z,100673
2017-07-11T10:02:26.928Z,100665
2017-07-11T10:04:55.137Z,100664
2017-07-11T10:07:23.322Z,100662
2017-07-11T10:09:51.501Z,100652
2017-07-11T10:12:19.704Z,100652
2017-07-11T10:14:47.859Z,100637
2017-07-11T10:17:16.013Z,100645
2017-07-11T10:19:44.195Z,100638
2017-07-11T10:22:12.366Z,100630
2017-07-11T10:24:40.549Z,100635
2017-07-11T10:27:08.757Z,100642
2017-07-11T10:29:36.936Z,100638
2017-07-11T10:32:05.122Z,100634
2017-07-11T10:34:33.325Z,100639
2017-07-11T10:37:01.502Z,100638
2017-07-11T10:39:29.657Z,100633
2017-07-11T10:41:57.848Z,100636
2017-07-11T10:44:25.998Z,100632
2017-07-11T10:46:54.174Z,100635
2017-07-11T10:49:22.380Z,100649
2017-07-11T10:51:50.529Z,100659
2017-07-11T10:54:18.690Z,100662
2017-07-11T10:56:46.879Z,100670
2017-07-11T10:59:15.034Z,100684
2017-07-11T11:01:43.196Z,100705
2017-07-11T11:04:12.184Z,100701
2017-07-11T11:06:41.115Z,100701
2017-07-11T11:09:09.275Z,100685
2017-07-11T11:11:37.464Z,100681
2017-07-11T11:14:05.638Z,100687
2017-07-11T11:16:33.820Z,100690
2017-07-11T11:19:02.028Z,100692
2017-07-11T11:21:30.200Z,100684
2017-07-11T11:23:58.392Z,100674
2017-07-11T11:26:26.597Z,100667
2017-07-11T11:28:54.761Z,100659
2017-07-11T11:31:23.701Z,100654
2017-07-11T11:33:51.909Z,100657
2017-07-11T11:36:20.147Z,100648
2017-07-11T11:38:48.351Z,100654
2017-07-11T11:41:16.920Z,100668
2017-07-11T11:43:45.080Z,100670
2017-07-11T11:46:13.242Z,100671
2017-07-11T11:48:41.447Z,100666
2017-07-11T11:51:09.603Z,100650
2017-07-11T11:53:37.774Z,100670
2017-07-11T11:56:05.977Z,100689
2017-07-11T11:58:34.132Z,100735
2017-07-11T12:01:02.308Z,100756
2017-07-11T12:03:30.513Z,100723
2017-07-11T12:05:58.681Z,100718
2017-07-11T12:08:26.865Z,100726
2017-07-11T12:10:55.073Z,100724
2017-07-11T12:13:23.255Z,100715
2017-07-11T12:15:51.435Z,100714
2017-07-11T12:18:19.626Z,100705
2017-07-11T12:20:47.779Z,100703
2017-07-11T12:23:15.938Z,100696
2017-07-11T12:25:44.886Z,100687
2017-07-11T12:28:13.058Z,100687
2017-07-11T12:30:41.216Z,100683
2017-07-11T12:33:09.411Z,100684
2017-07-11T12:35:37.574Z,100681
2017-07-11T12:38:05.753Z,100685
2017-07-11T12:40:33.957Z,100683
2017-07-11T12:43:02.137Z,100691
2017-07-11T12:45:30.314Z,100691
2017-07-11T12:47:58.502Z,100685
2017-07-11T12:50:27.453Z,100669
2017-07-11T12:52:55.615Z,100676
2017-07-11T12:55:23.810Z,100685
2017-07-11T12:57:51.976Z,100681
2017-07-11T13:00:20.156Z,100684
2017-07-11T13:02:48.362Z,100681
2017-07-11T13:05:17.306Z,100688
2017-07-11T13:07:45.478Z,100692
2017-07-11T13:10:13.680Z,100697
2017-07-11T13:12:41.859Z,100718
2017-07-11T13:15:10.012Z,100711
2017-07-11T13:17:38.206Z,100713
2017-07-11T13:20:06.367Z,100721
2017-07-11T13:22:34.544Z,100729
2017-07-11T13:25:02.724Z,100736
2017-07-11T13:27:30.870Z,100731
2017-07-11T13:29:59.033Z,100726
2017-07-11T13:32:27.237Z,100741
2017-07-11T13:34:55.394Z,100734
2017-07-11T13:37:23.560Z,100739
2017-07-11T13:39:51.754Z,100739
2017-07-11T13:42:19.925Z,100742
2017-07-11T13:44:48.114Z,100740
2017-07-11T13:47:16.322Z,100744
2017-07-11T13:49:45.247Z,100744
2017-07-11T13:52:13.445Z,100746
2017-07-11T13:54:41.669Z,100759
2017-07-11T13:57:10.595Z,100766
2017-07-11T13:59:38.749Z,100770
2017-07-11T14:02:07.695Z,100768
2017-07-11T14:04:35.849Z,100773
2017-07-11T14:07:04.021Z,100761
2017-07-11T14:09:32.221Z,100762
2017-07-11T14:12:00.379Z,100768
2017-07-11T14:14:28.578Z,100754
2017-07-11T14:16:56.763Z,100757
2017-07-11T14:19:24.941Z,100757
2017-07-11T14:21:53.098Z,100746
2017-07-11T14:24:22.069Z,100752
2017-07-11T14:26:50.249Z,100761
2017-07-11T14:29:18.429Z,100770
2017-07-11T14:31:46.616Z,100757
2017-07-11T14:34:14.787Z,100757
2017-07-11T14:36:42.962Z,100759
2017-07-11T14:39:11.148Z,100755
2017-07-11T14:41:39.306Z,100760
2017-07-11T14:44:07.454Z,100748
2017-07-11T14:46:35.639Z,100755
2017-07-11T14:49:03.791Z,100755
2017-07-11T14:51:31.962Z,100748
2017-07-11T14:54:00.163Z,100745
2017-07-11T14:56:28.315Z,100752
2017-07-11T14:58:56.481Z,100752
2017-07-11T15:01:24.667Z,100739
2017-07-11T15:03:52.832Z,100753
2017-07-11T15:06:20.980Z,100747
2017-07-11T15:08:49.924Z,100743
2017-07-11T15:11:18.079Z,100744
2017-07-11T15:13:46.227Z,100734
2017-07-11T15:16:15.181Z,100752
2017-07-11T15:18:43.326Z,100752
2017-07-11T15:21:11.472Z,100750
2017-07-11T15:23:39.665Z,100743
2017-07-11T15:26:07.814Z,100756
2017-07-11T15:28:35.966Z,100748
2017-07-11T15:31:04.142Z,100752
2017-07-11T15:33:32.291Z,100760
2017-07-11T15:36:00.460Z,100756
2017-07-11T15:38:28.654Z,100757
2017-07-11T15:40:56.802Z,100760
2017-07-11T15:43:24.971Z,100762
2017-07-11T15:45:53.170Z,100761
2017-07-11T15:48:21.319Z,100760
2017-07-11T15:50:49.484Z,100763
2017-07-11T15:53:18.435Z,100764
2017-07-11T15:55:46.583Z,100764
2017-07-11T15:58:14.757Z,100769
2017-07-11T16:00:42.941Z,100770
2017-07-11T16:03:11.094Z,100761
2017-07-11T16:05:39.253Z,100761
2017-07-11T16:08:08.225Z,100761
2017-07-11T16:10:36.374Z,100763
2017-07-11T16:13:04.542Z,100764
2017-07-11T16:15:32.715Z,100764
2017-07-11T16:18:00.881Z,100758
2017-07-11T16:20:29.042Z,100761
2017-07-11T16:22:58.569Z,100763
2017-07-11T16:25:26.742Z,100762
2017-07-11T16:27:54.891Z,100764
2017-07-11T16:30:23.062Z,100766
2017-07-11T16:32:51.228Z,100762
2017-07-11T16:35:19.397Z,100773
2017-07-11T16:37:48.465Z,100769
2017-07-11T16:40:16.637Z,100768
2017-07-11T16:42:44.827Z,100776
2017-07-11T16:45:13.797Z,100764
2017-07-11T16:47:41.958Z,100776
2017-07-11T16:50:10.137Z,100786
2017-07-11T16:52:38.323Z,100786
2017-07-11T16:55:06.498Z,100804
2017-07-11T16:57:34.673Z,100815
2017-07-11T17:00:02.852Z,100838
2017-07-11T17:02:31.014Z,100846
2017-07-11T17:04:59.933Z,100878
2017-07-11T17:07:28.157Z,100875
2017-07-11T17:09:56.323Z,100867
2017-07-11T17:12:24.502Z,100860
2017-07-11T17:14:52.686Z,100855
2017-07-11T17:17:20.845Z,100847
2017-07-11T17:19:49.007Z,100844
2017-07-11T17:22:17.189Z,100847
2017-07-11T17:24:45.338Z,100844
2017-07-11T17:27:13.494Z,100837
2017-07-11T17:29:41.686Z,100835
2017-07-11T17:32:09.858Z,100830
2017-07-11T17:34:38.016Z,100826
2017-07-11T17:37:06.634Z,100856
2017-07-11T17:39:34.805Z,100869
2017-07-11T17:42:02.985Z,100881
2017-07-11T17:44:31.193Z,100875
2017-07-11T17:46:59.350Z,100866
2017-07-11T17:49:27.520Z,100857
2017-07-11T17:51:55.717Z,100852
2017-07-11T17:54:24.667Z,100855
2017-07-11T17:56:52.833Z,100851
2017-07-11T17:59:21.053Z,100848
2017-07-11T18:01:49.234Z,100853
2017-07-11T18:04:17.388Z,100839
2017-07-11T18:06:45.605Z,100851
2017-07-11T18:09:13.761Z,100848
2017-07-11T18:11:42.687Z,100849
2017-07-11T18:14:10.888Z,100849
2017-07-11T18:16:39.067Z,100844
2017-07-11T18:19:07.248Z,100854
2017-07-11T18:21:35.427Z,100843
2017-07-11T18:24:03.592Z,100844
2017-07-11T18:26:31.751Z,100843
2017-07-11T18:28:59.938Z,100832
2017-07-11T18:31:28.114Z,100832
2017-07-11T18:33:56.296Z,100832
2017-07-11T18:36:24.485Z,100828
2017-07-11T18:38:52.647Z,100837
2017-07-11T18:41:20.810Z,100844
2017-07-11T18:43:49.025Z,100837
2017-07-11T18:46:17.973Z,100846
2017-07-11T18:48:46.139Z,100843
2017-07-11T18:51:14.349Z,100847
2017-07-11T18:53:42.529Z,100845
2017-07-11T18:56:10.712Z,100857
2017-07-11T18:58:38.931Z,100851
2017-07-11T19:01:07.094Z,100851
2017-07-11T19:03:35.252Z,100851
2017-07-11T19:06:04.210Z,100847
2017-07-11T19:08:32.373Z,100852
2017-07-11T19:11:00.529Z,100849
2017-07-11T19:13:28.739Z,100856
2017-07-11T19:15:56.915Z,100847
2017-07-11T19:18:25.100Z,100852
2017-07-11T19:20:53.309Z,100854
2017-07-11T19:23:22.242Z,100851
2017-07-11T19:25:50.401Z,100852
2017-07-11T19:28:18.618Z,100853
2017-07-11T19:30:46.810Z,100846
2017-07-11T19:33:15.048Z,100851
2017-07-11T19:35:43.235Z,100863
2017-07-11T19:38:11.409Z,100870
2017-07-11T19:40:39.565Z,100874
2017-07-11T19:43:07.772Z,100875
2017-07-11T19:45:35.935Z,100880
2017-07-11T19:48:04.874Z,100883
2017-07-11T19:50:33.077Z,100878
2017-07-11T19:53:01.255Z,100882
2017-07-11T19:55:29.429Z,100883
2017-07-11T19:57:57.624Z,100887
2017-07-11T20:00:26.565Z,100873
2017-07-11T20:02:54.883Z,100862
2017-07-11T20:05:23.079Z,100868
2017-07-11T20:07:52.011Z,100863
2017-07-11T20:10:20.172Z,100853
2017-07-11T20:12:48.387Z,100857
2017-07-11T20:15:16.561Z,100864
2017-07-11T20:17:44.715Z,100864
2017-07-11T20:20:12.942Z,100864
2017-07-11T20:22:41.865Z,100862
2017-07-11T20:25:10.023Z,100863
2017-07-11T20:27:38.235Z,100867
2017-07-11T20:30:06.394Z,100863
2017-07-11T20:32:34.563Z,100858
2017-07-11T20:35:02.778Z,100865
2017-07-11T20:37:30.956Z,100858
2017-07-11T20:39:59.119Z,100865
2017-07-11T20:42:27.300Z,100862
2017-07-11T20:44:55.485Z,100865
2017-07-11T20:47:23.646Z,100865
2017-07-11T20:49:51.825Z,100866
2017-07-11T20:52:20.012Z,100859
2017-07-11T20:54:48.176Z,100855
2017-07-11T20:57:16.356Z,100846
2017-07-11T20:59:44.530Z,100858
2017-07-11T21:02:12.691Z,100862
2017-07-11T21:04:40.881Z,100862
2017-07-11T21:07:09.036Z,100855
2017-07-11T21:09:37.202Z,100859
2017-07-11T21:12:05.415Z,100862
2017-07-11T21:14:33.579Z,100864
2017-07-11T21:17:01.753Z,100861
2017-07-11T21:19:29.964Z,100870
2017-07-11T21:21:58.882Z,100869
2017-07-11T21:24:27.134Z,100879
2017-07-11T21:26:55.374Z,100881
2017-07-11T21:29:23.547Z,100888
2017-07-11T21:31:51.704Z,100900
2017-07-11T21:34:19.911Z,100896
2017-07-11T21:36:48.843Z,100899
2017-07-11T21:39:17.030Z,100901
2017-07-11T21:41:45.208Z,100895
2017-07-11T21:44:13.402Z,100900
2017-07-11T21:46:41.571Z,100899
2017-07-11T21:49:09.774Z,100899
2017-07-11T21:51:37.924Z,100903
2017-07-11T21:54:06.084Z,100899
2017-07-11T21:56:34.272Z,100905
2017-07-11T21:59:02.420Z,100916
2017-07-11T22:01:30.578Z,100909
2017-07-11T22:03:59.303Z,100894
2017-07-11T22:06:27.473Z,100900
2017-07-11T22:08:55.644Z,100904
2017-07-11T22:11:23.823Z,100910
2017-07-11T22:13:52.174Z,100914
2017-07-11T22:16:20.341Z,100911
2017-07-11T22:18:48.556Z,100916
2017-07-11T22:21:16.769Z,100918
2017-07-11T22:23:45.716Z,100905
2017-07-11T22:26:13.925Z,100905
2017-07-11T22:28:42.112Z,100903
2017-07-11T22:31:11.903Z,100900
2017-07-11T22:33:40.110Z,100897
2017-07-11T22:36:08.287Z,100902
2017-07-11T22:38:36.450Z,100903
2017-07-11T22:41:04.639Z,100912
2017-07-11T22:43:32.809Z,100920
2017-07-11T22:46:00.976Z,100918
2017-07-11T22:48:29.163Z,100912
2017-07-11T22:50:57.316Z,100904
2017-07-11T22:53:26.395Z,100913
2017-07-11T22:55:54.595Z,100912
2017-07-11T22:58:23.534Z,100908
2017-07-11T23:00:51.718Z,100901
2017-07-11T23:03:19.905Z,100903
2017-07-11T23:05:48.832Z,100907
2017-07-11T23:08:16.991Z,100896
2017-07-11T23:10:45.193Z,100889
2017-07-11T23:13:13.358Z,100890
2017-07-11T23:15:41.535Z,100883
2017-07-11T23:18:09.723Z,100888
2017-07-11T23:20:37.916Z,100885
2017-07-11T23:23:06.093Z,100894
2017-07-11T23:25:34.290Z,100894
2017-07-11T23:28:03.214Z,100880
2017-07-11T23:30:31.374Z,100871
2017-07-11T23:32:59.558Z,100864
2017-07-11T23:35:27.710Z,100866
2017-07-11T23:37:55.863Z,100871
2017-07-11T23:40:24.061Z,100863
2017-07-11T23:42:53.000Z,100866
2017-07-11T23:45:21.173Z,100874
2017-07-11T23:47:49.372Z,100868
2017-07-11T23:50:17.546Z,100868
2017-07-11T23:52:45.698Z,100853
2017-07-11T23:55:13.898Z,100856
2017-07-11T23:57:42.046Z,100860
